Time;durP1;ratioP1;P1;durP2;ratioP2;P2;SDS_P1;SDS_P2;PMS_P1;PMS_P2;Temp;Humidity;BMP_temperature;BMP_pressure;BME280_temperature;BME280_humidity;BME280_pressure;Samples;Min_cycle;Max_cycle;Signal;HPM_P1;HPM_P2
2022/06/03 00:00:49;;;;;;;12.70;8.00;;;23.40;99.90;;;;;;5048571;28;20466;-61
2022/06/03 00:03:41;;;;;;;10.73;7.53;;;23.30;99.90;;;;;;5050964;28;20960;-61
2022/06/03 00:06:32;;;;;;;15.50;9.33;;;23.30;99.90;;;;;;5051172;28;20938;-61
2022/06/03 00:09:16;;;;;;;9.47;7.70;;;23.30;99.90;;;;;;5050664;28;20509;-61
2022/06/03 00:12:23;;;;;;;14.57;8.50;;;23.30;99.90;;;;;;5051004;28;20523;-62
2022/06/03 00:15:18;;;;;;;15.90;8.60;;;23.30;99.90;;;;;;5050078;28;20448;-62
2022/06/03 00:18:14;;;;;;;14.53;8.03;;;23.30;99.90;;;;;;5028053;28;20454;-62
2022/06/03 00:20:54;;;;;;;9.23;7.40;;;23.20;99.90;;;;;;5050745;28;20450;-62
2022/06/03 00:23:51;;;;;;;10.00;7.90;;;23.20;99.90;;;;;;5050729;28;20476;-62
2022/06/03 00:26:34;;;;;;;9.83;7.40;;;23.20;99.90;;;;;;5050731;28;20922;-62
2022/06/03 00:29:12;;;;;;;11.90;8.20;;;23.20;99.90;;;;;;5050793;28;20512;-62
2022/06/03 00:32:02;;;;;;;10.60;7.90;;;23.20;99.90;;;;;;5050269;28;20470;-62
2022/06/03 00:34:54;;;;;;;9.30;6.77;;;23.10;99.90;;;;;;5050329;28;20492;-62
2022/06/03 00:37:32;;;;;;;13.33;7.53;;;23.00;99.90;;;;;;5050560;28;20458;-62
2022/06/03 00:40:17;;;;;;;10.40;7.80;;;23.00;99.90;;;;;;5050129;28;20921;-62
2022/06/03 00:43:11;;;;;;;15.83;7.37;;;23.00;99.90;;;;;;5050121;28;20473;-62
2022/06/03 00:46:00;;;;;;;11.30;7.50;;;22.90;99.90;;;;;;5050327;28;20497;-62
2022/06/03 00:48:50;;;;;;;10.00;7.20;;;22.80;99.90;;;;;;5039705;28;20454;-62
2022/06/03 00:51:35;;;;;;;12.17;7.50;;;22.90;99.90;;;;;;5050356;28;20531;-61
2022/06/03 00:54:24;;;;;;;11.10;7.73;;;22.80;99.90;;;;;;5050112;28;20503;-62
2022/06/03 00:57:21;;;;;;;10.47;6.70;;;22.80;99.90;;;;;;5050036;28;20875;-62
2022/06/03 01:00:04;;;;;;;13.30;7.50;;;22.80;99.90;;;;;;5050167;28;20445;-62
2022/06/03 01:02:57;;;;;;;9.37;7.13;;;22.90;99.90;;;;;;5050157;28;20488;-61
2022/06/03 01:05:33;;;;;;;8.50;6.93;;;22.90;99.90;;;;;;5049733;28;20539;-61
2022/06/03 01:08:10;;;;;;;9.23;6.60;;;22.80;99.90;;;;;;5049558;28;20885;-62
2022/06/03 01:11:04;;;;;;;12.23;7.63;;;22.80;99.90;;;;;;5050007;28;20798;-61
2022/06/03 01:13:51;;;;;;;12.43;7.70;;;22.70;99.90;;;;;;5047425;28;20466;-61
2022/06/03 01:16:26;;;;;;;8.13;6.93;;;22.70;99.90;;;;;;5049814;28;20753;-62
2022/06/03 01:19:00;;;;;;;11.00;7.60;;;22.70;99.90;;;;;;5049910;28;20518;-62
2022/06/03 01:22:01;;;;;;;11.03;6.87;;;22.70;99.90;;;;;;5049767;28;20534;-61
2022/06/03 01:25:01;;;;;;;10.67;7.33;;;22.70;99.90;;;;;;5049296;28;20570;-61
2022/06/03 01:28:07;;;;;;;8.03;7.00;;;22.70;99.90;;;;;;5023465;28;20825;-62
2022/06/03 01:30:54;;;;;;;10.70;8.90;;;22.50;99.90;;;;;;5049472;28;20805;-62
2022/06/03 01:33:51;;;;;;;10.07;7.43;;;22.50;99.90;;;;;;5049702;28;20446;-62
2022/06/03 01:36:35;;;;;;;11.10;7.53;;;22.60;99.90;;;;;;5049401;28;20438;-62
2022/06/03 01:39:37;;;;;;;8.73;7.40;;;22.60;99.90;;;;;;5049456;28;20438;-61
2022/06/03 01:42:44;;;;;;;10.37;7.77;;;22.60;99.90;;;;;;5023096;28;20477;-62
2022/06/03 01:45:40;;;;;;;14.60;8.43;;;22.60;99.90;;;;;;5049478;28;20669;-62
2022/06/03 01:48:47;;;;;;;10.60;8.17;;;22.50;99.90;;;;;;5049443;28;20457;-61
2022/06/03 01:51:49;;;;;;;11.80;8.80;;;22.50;99.90;;;;;;5023554;28;20485;-61
2022/06/03 01:54:42;;;;;;;10.83;8.33;;;22.60;99.90;;;;;;5023528;28;20441;-61
2022/06/03 01:57:27;;;;;;;10.17;8.00;;;22.30;99.90;;;;;;5049269;28;20446;-63
2022/06/03 02:00:17;;;;;;;11.37;8.87;;;22.20;99.90;;;;;;5049281;28;20981;-61
2022/06/03 02:03:32;;;;;;;12.23;8.67;;;21.80;99.90;;;;;;5049266;28;20466;-62
2022/06/03 02:06:38;;;;;;;9.37;7.30;;;21.70;99.90;;;;;;5049030;28;20881;-62
2022/06/03 02:09:20;;;;;;;9.90;7.50;;;21.40;99.90;;;;;;5022995;28;20489;-62
2022/06/03 02:12:04;;;;;;;11.47;7.53;;;21.50;99.90;;;;;;5049124;28;20470;-62
2022/06/03 02:15:01;;;;;;;9.67;7.30;;;21.50;99.90;;;;;;5049352;28;20511;-62
2022/06/03 02:17:57;;;;;;;11.03;6.70;;;21.40;99.90;;;;;;5023323;28;20544;-63
2022/06/03 02:20:42;;;;;;;9.67;7.40;;;21.40;99.90;;;;;;5048932;28;20446;-62
2022/06/03 02:23:39;;;;;;;10.90;7.60;;;21.30;99.90;;;;;;5049033;28;20507;-62
2022/06/03 02:26:38;;;;;;;13.00;6.93;;;21.60;99.90;;;;;;5049180;28;20884;-61
2022/06/03 02:33:01;;;;;;;10.67;7.30;;;21.70;99.90;;;;;;5049027;28;20591;-62
2022/06/03 02:35:41;;;;;;;9.17;7.03;;;21.80;99.90;;;;;;5048997;28;20530;-62
2022/06/03 02:38:22;;;;;;;9.97;6.50;;;21.80;99.90;;;;;;5052565;28;20449;-63
2022/06/03 02:41:13;;;;;;;10.30;6.23;;;21.90;99.90;;;;;;5052584;28;20454;-63
2022/06/03 02:44:16;;;;;;;9.33;6.53;;;21.80;99.90;;;;;;5052724;28;20461;-63
2022/06/03 02:47:05;;;;;;;13.10;6.53;;;21.80;99.90;;;;;;5052617;28;21018;-63
2022/06/03 02:50:16;;;;;;;9.90;7.30;;;21.80;99.90;;;;;;5052343;28;20928;-62
2022/06/03 02:53:14;;;;;;;10.43;7.50;;;21.70;99.90;;;;;;5052614;28;21267;-62
2022/06/03 02:56:19;;;;;;;12.27;7.47;;;21.70;99.90;;;;;;5052179;28;20930;-62
2022/06/03 02:59:12;;;;;;;8.93;7.30;;;21.70;99.90;;;;;;5052204;28;20805;-61
2022/06/03 03:02:15;;;;;;;12.30;7.43;;;21.60;99.90;;;;;;5051736;28;20473;-63
2022/06/03 03:05:03;;;;;;;10.17;7.50;;;21.60;99.90;;;;;;5052139;28;21047;-62
2022/06/03 03:07:47;;;;;;;9.40;7.27;;;21.50;99.90;;;;;;5051894;28;20558;-62
2022/06/03 03:10:35;;;;;;;13.63;8.00;;;21.50;99.90;;;;;;5051975;28;20982;-62
2022/06/03 03:13:27;;;;;;;10.37;7.30;;;21.40;99.90;;;;;;5038952;28;21004;-62
2022/06/03 03:16:23;;;;;;;10.83;8.07;;;21.50;99.90;;;;;;5052142;28;20450;-63
2022/06/03 03:19:33;;;;;;;10.23;8.07;;;21.60;99.90;;;;;;5029836;28;20450;-62
2022/06/03 03:22:28;;;;;;;11.50;8.10;;;21.70;99.90;;;;;;5052040;28;20481;-64
2022/06/03 03:25:12;;;;;;;11.20;8.27;;;21.80;99.90;;;;;;5051749;28;20486;-63
2022/06/03 03:28:22;;;;;;;15.07;7.50;;;21.70;99.90;;;;;;5051910;28;20458;-62
2022/06/03 03:31:03;;;;;;;14.00;8.70;;;21.70;99.90;;;;;;5015538;28;20464;-63
2022/06/03 03:33:45;;;;;;;15.50;7.80;;;21.80;99.90;;;;;;5051687;28;20848;-62
2022/06/03 03:36:43;;;;;;;15.90;8.10;;;21.80;99.90;;;;;;5052038;28;20450;-62
2022/06/03 03:39:42;;;;;;;14.73;8.27;;;21.90;99.90;;;;;;5051988;28;20877;-62
2022/06/03 03:42:45;;;;;;;8.93;8.03;;;22.00;99.90;;;;;;5051746;28;20477;-62
2022/06/03 03:45:49;;;;;;;11.80;8.07;;;22.10;99.90;;;;;;5051692;28;20883;-66
2022/06/03 03:48:58;;;;;;;11.00;8.37;;;22.20;99.90;;;;;;5050772;28;20460;-63
2022/06/03 03:51:34;;;;;;;11.57;8.27;;;22.10;99.90;;;;;;5051522;28;21029;-64
2022/06/03 03:54:40;;;;;;;9.37;7.87;;;22.10;99.90;;;;;;5051308;28;20462;-64
2022/06/03 03:57:42;;;;;;;10.30;6.73;;;22.30;99.90;;;;;;5051460;28;20942;-65
2022/06/03 04:00:30;;;;;;;11.30;8.47;;;22.40;99.90;;;;;;5049657;28;20445;-65
2022/06/03 04:03:18;;;;;;;9.20;7.40;;;22.50;99.90;;;;;;5051299;28;20478;-63
2022/06/03 04:06:29;;;;;;;9.87;7.17;;;22.50;99.90;;;;;;5051388;28;20569;-65
2022/06/03 04:09:20;;;;;;;9.13;7.13;;;22.50;99.90;;;;;;5050763;28;20500;-64
2022/06/03 04:12:28;;;;;;;8.97;7.30;;;22.70;99.90;;;;;;5051084;28;20469;-65
2022/06/03 04:15:20;;;;;;;14.23;8.50;;;22.80;99.90;;;;;;5001968;28;20508;-63
2022/06/03 04:18:30;;;;;;;10.83;7.07;;;23.00;99.90;;;;;;5038201;28;20457;-65
2022/06/03 04:21:29;;;;;;;13.03;7.47;;;23.10;99.90;;;;;;5048440;28;20466;-65
2022/06/03 04:24:25;;;;;;;11.03;7.60;;;23.20;99.90;;;;;;5050248;28;20456;-64
2022/06/03 04:27:22;;;;;;;12.10;8.90;;;23.30;99.90;;;;;;5050642;28;20587;-64
2022/06/03 04:30:37;;;;;;;12.40;8.77;;;23.30;99.90;;;;;;5050493;28;20453;-63
2022/06/03 04:33:46;;;;;;;9.77;8.07;;;23.40;99.90;;;;;;5050499;28;20452;-65
2022/06/03 04:36:48;;;;;;;13.07;8.10;;;23.40;99.90;;;;;;4993864;28;20980;-71
2022/06/03 04:39:54;;;;;;;10.53;8.50;;;23.50;99.90;;;;;;5050604;28;20521;-64
2022/06/03 04:46:10;;;;;;;14.20;10.50;;;23.60;99.90;;;;;;5086483;27;21051;-65
2022/06/03 04:49:28;;;;;;;13.20;9.10;;;23.60;99.90;;;;;;5087050;28;20444;-66
2022/06/03 04:52:35;;;;;;;13.17;9.40;;;23.70;99.90;;;;;;5088314;28;20464;-66
2022/06/03 04:55:43;;;;;;;15.73;8.57;;;23.80;99.90;;;;;;5081824;28;20456;-64
2022/06/03 04:58:54;;;;;;;17.40;8.80;;;23.90;99.90;;;;;;5050360;28;20509;-65
2022/06/03 05:01:57;;;;;;;13.60;8.73;;;24.00;99.90;;;;;;5086776;28;20521;-66
2022/06/03 05:05:15;;;;;;;13.00;8.30;;;24.10;99.90;;;;;;5086922;28;20491;-66
2022/06/03 05:08:21;;;;;;;11.93;9.67;;;24.10;99.90;;;;;;5086862;28;20791;-65
2022/06/03 05:11:35;;;;;;;13.17;8.27;;;24.10;99.90;;;;;;5086638;28;20509;-67
2022/06/03 05:14:56;;;;;;;11.73;9.03;;;24.20;99.90;;;;;;5086558;28;20435;-66
2022/06/03 05:17:53;;;;;;;18.07;10.53;;;24.30;99.90;;;;;;5042077;28;20448;-65
2022/06/03 05:20:59;;;;;;;11.83;8.30;;;24.40;99.90;;;;;;5086605;28;20513;-66
2022/06/03 05:23:51;;;;;;;10.93;8.60;;;24.40;99.90;;;;;;5086357;28;20462;-64
2022/06/03 05:26:38;;;;;;;13.00;9.90;;;24.60;99.90;;;;;;5086542;28;20754;-66
2022/06/03 05:29:32;;;;;;;13.60;9.20;;;24.70;99.90;;;;;;5085879;28;20448;-66
2022/06/03 05:32:36;;;;;;;11.90;8.07;;;24.80;99.90;;;;;;5085716;28;20464;-62
2022/06/03 05:35:31;;;;;;;10.57;9.07;;;24.80;99.90;;;;;;5086281;28;20463;-66
2022/06/03 05:38:36;;;;;;;12.53;7.93;;;24.90;99.90;;;;;;5085669;28;20933;-64
2022/06/03 05:44:24;;;;;;;10.30;8.13;;;25.00;99.90;;;;;;5085660;28;20642;-67
2022/06/03 05:47:01;;;;;;;12.90;8.80;;;25.10;99.90;;;;;;5085949;28;20924;-65
2022/06/03 05:49:36;;;;;;;13.37;9.40;;;25.10;99.90;;;;;;5086170;28;20452;-63
2022/06/03 05:52:36;;;;;;;12.13;7.37;;;25.20;99.90;;;;;;5085979;28;20536;-64
2022/06/03 05:55:28;;;;;;;12.67;7.57;;;25.20;99.90;;;;;;5082462;28;20448;-64
2022/06/03 05:58:17;;;;;;;11.30;7.80;;;25.30;99.90;;;;;;5072331;28;20460;-61
2022/06/03 06:00:52;;;;;;;16.00;7.23;;;25.50;99.90;;;;;;5072383;28;20510;-66
2022/06/03 06:03:34;;;;;;;14.53;7.27;;;25.60;99.90;;;;;;5072357;28;20463;-65
2022/06/03 06:06:15;;;;;;;12.63;7.20;;;25.60;99.90;;;;;;5072299;28;20440;-63
2022/06/03 06:08:51;;;;;;;11.30;6.47;;;25.80;99.90;;;;;;5072093;28;20821;-65
2022/06/03 06:11:27;;;;;;;11.90;7.57;;;25.90;99.90;;;;;;5071957;28;20968;-67
2022/06/03 06:14:27;;;;;;;10.77;8.07;;;26.10;99.90;;;;;;5072005;28;20506;-66
2022/06/03 06:16:59;;;;;;;14.97;7.23;;;26.20;99.90;;;;;;5071744;28;20542;-64
2022/06/03 06:19:40;;;;;;;10.00;6.83;;;26.40;99.90;;;;;;5070622;28;20945;-66
2022/06/03 06:22:23;;;;;;;13.53;7.13;;;26.60;99.90;;;;;;5071453;28;20481;-64
2022/06/03 06:24:57;;;;;;;11.57;8.00;;;26.70;99.90;;;;;;5071718;28;20889;-66
2022/06/03 06:28:01;;;;;;;11.63;6.43;;;26.70;99.90;;;;;;5072015;28;20919;-66
2022/06/03 06:31:05;;;;;;;15.27;7.13;;;26.80;99.90;;;;;;5071718;28;21003;-65
2022/06/03 06:33:56;;;;;;;14.87;7.20;;;26.90;99.90;;;;;;5072055;28;20452;-67
2022/06/03 06:36:52;;;;;;;11.80;6.47;;;26.90;99.90;;;;;;5071776;28;20519;-67
2022/06/03 06:39:46;;;;;;;11.47;8.43;;;26.70;99.90;;;;;;5070389;28;20959;-66
2022/06/03 06:42:24;;;;;;;11.23;6.93;;;26.90;99.90;;;;;;5066521;28;20542;-63
2022/06/03 06:45:01;;;;;;;8.30;6.63;;;27.00;99.90;;;;;;5071079;28;20554;-62
2022/06/03 06:47:35;;;;;;;13.83;8.77;;;27.10;99.90;;;;;;5071282;28;20506;-63
2022/06/03 06:50:18;;;;;;;11.10;6.20;;;27.20;99.90;;;;;;5071294;28;20897;-62
2022/06/03 06:53:03;;;;;;;10.13;6.30;;;27.30;99.90;;;;;;5071423;28;21038;-62
2022/06/03 06:55:51;;;;;;;8.80;6.60;;;27.40;99.90;;;;;;5071512;28;20964;-64
2022/06/03 06:58:42;;;;;;;8.27;6.80;;;27.70;99.90;;;;;;5071324;28;20449;-62
2022/06/03 07:01:11;;;;;;;9.37;7.73;;;27.80;99.90;;;;;;5071268;28;20480;-64
2022/06/03 07:03:54;;;;;;;8.77;5.90;;;27.80;99.90;;;;;;5070945;28;20786;-66
2022/06/03 07:06:28;;;;;;;8.27;6.30;;;28.10;99.90;;;;;;5070903;28;20453;-65
2022/06/03 07:09:02;;;;;;;10.00;5.70;;;28.30;99.90;;;;;;5070432;28;20593;-64
2022/06/03 07:11:36;;;;;;;8.43;5.70;;;28.50;99.90;;;;;;5070974;28;20465;-63
2022/06/03 07:14:07;;;;;;;7.90;6.00;;;28.70;99.90;;;;;;5070825;28;20479;-65
2022/06/03 07:19:50;;;;;;;8.73;6.37;;;29.10;99.90;;;;;;5070804;28;20475;-64
2022/06/03 07:22:29;;;;;;;10.40;6.83;;;29.00;99.90;;;;;;5070306;28;20957;-65
2022/06/03 07:25:08;;;;;;;8.10;6.70;;;29.00;99.90;;;;;;5070377;28;20554;-65
2022/06/03 07:27:47;;;;;;;12.27;6.30;;;29.20;99.90;;;;;;5070855;28;20541;-65
2022/06/03 07:30:19;;;;;;;10.47;6.90;;;29.30;99.90;;;;;;5070748;28;20519;-65
2022/06/03 07:32:51;;;;;;;9.73;5.60;;;29.30;99.90;;;;;;5070374;28;20968;-64
2022/06/03 07:35:24;;;;;;;9.83;6.10;;;29.50;99.90;;;;;;5070452;28;20945;-65
2022/06/03 07:37:55;;;;;;;8.23;6.07;;;29.70;99.90;;;;;;5070582;28;20459;-65
2022/06/03 07:40:25;;;;;;;12.40;9.40;;;29.70;99.90;;;;;;5069995;28;20456;-64
2022/06/03 07:43:03;;;;;;;10.93;7.20;;;29.70;99.90;;;;;;5070406;28;20952;-66
2022/06/03 07:45:41;;;;;;;7.77;5.20;;;30.00;99.90;;;;;;5070117;28;20495;-65
2022/06/03 07:48:12;;;;;;;10.13;8.30;;;30.30;99.90;;;;;;5070450;28;20459;-66
2022/06/03 07:50:48;;;;;;;10.57;6.40;;;30.50;99.90;;;;;;5070425;28;20503;-66
2022/06/03 07:53:21;;;;;;;10.10;6.93;;;30.70;99.90;;;;;;5070346;28;20455;-69
2022/06/03 07:55:54;;;;;;;16.40;6.07;;;30.80;99.90;;;;;;5070500;28;20433;-68
2022/06/03 07:58:23;;;;;;;9.70;6.23;;;30.90;99.90;;;;;;5070212;28;20550;-65
2022/06/03 08:00:50;;;;;;;7.73;5.77;;;30.90;99.90;;;;;;5070034;28;20448;-63
2022/06/03 08:03:21;;;;;;;8.97;5.40;;;30.60;99.90;;;;;;5070217;28;20449;-63
2022/06/03 08:05:56;;;;;;;9.57;5.67;;;30.60;99.90;;;;;;5070060;28;20890;-68
2022/06/03 08:11:13;;;;;;;8.07;5.20;;;31.10;99.90;;;;;;5069882;28;20452;-65
2022/06/03 08:13:49;;;;;;;11.30;6.23;;;31.30;99.90;;;;;;5069966;28;20445;-67
2022/06/03 08:16:24;;;;;;;12.33;7.40;;;31.50;99.70;;;;;;5069440;28;20457;-68
2022/06/03 08:18:56;;;;;;;10.13;6.30;;;31.70;99.20;;;;;;5069230;28;20570;-64
2022/06/03 08:21:28;;;;;;;8.57;5.77;;;31.90;98.70;;;;;;5069446;28;20802;-65
2022/06/03 08:23:56;;;;;;;8.20;5.80;;;32.00;98.20;;;;;;5069589;28;20457;-64
2022/06/03 08:26:27;;;;;;;10.93;6.13;;;31.80;96.60;;;;;;5068416;28;20480;-65
2022/06/03 08:29:02;;;;;;;11.10;6.30;;;31.60;97.00;;;;;;5069592;28;20449;-65
2022/06/03 08:31:32;;;;;;;11.00;6.30;;;31.40;97.40;;;;;;5069510;28;20551;-66
2022/06/03 08:34:01;;;;;;;9.60;5.70;;;31.50;98.80;;;;;;5069686;28;20528;-66
2022/06/03 08:36:33;;;;;;;10.57;5.13;;;31.70;98.10;;;;;;5069742;28;20484;-67
2022/06/03 08:39:06;;;;;;;7.10;5.30;;;31.90;95.50;;;;;;5069567;28;20994;-65
2022/06/03 08:41:56;;;;;;;7.97;5.67;;;32.10;95.80;;;;;;5069515;28;20469;-64
2022/06/03 08:44:33;;;;;;;10.50;8.13;;;32.30;95.90;;;;;;5068995;28;20489;-65
2022/06/03 08:47:08;;;;;;;9.80;6.20;;;32.30;96.10;;;;;;5069535;28;20510;-66
2022/06/03 08:49:47;;;;;;;8.03;5.67;;;32.40;95.70;;;;;;5069616;28;20494;-67
2022/06/03 08:52:19;;;;;;;11.60;5.97;;;32.20;95.30;;;;;;5069333;28;20518;-64
2022/06/03 08:54:52;;;;;;;14.80;6.87;;;32.20;95.80;;;;;;5069265;28;20538;-64
2022/06/03 08:57:25;;;;;;;8.70;7.17;;;32.30;96.20;;;;;;5069546;28;20857;-66
2022/06/03 08:59:58;;;;;;;7.40;5.50;;;32.40;96.70;;;;;;5069464;28;20465;-66
2022/06/03 09:02:31;;;;;;;8.80;6.40;;;32.30;95.10;;;;;;5069326;28;20465;-66
2022/06/03 09:05:03;;;;;;;12.53;7.00;;;32.00;95.00;;;;;;5069345;28;20522;-64
2022/06/03 09:07:39;;;;;;;9.03;5.63;;;31.60;94.90;;;;;;5069363;28;20457;-64
2022/06/03 09:10:14;;;;;;;8.23;5.17;;;31.10;95.20;;;;;;5069514;28;20539;-66
2022/06/03 09:12:50;;;;;;;9.33;6.13;;;30.90;95.60;;;;;;5068734;28;21042;-65
2022/06/03 09:15:22;;;;;;;9.47;5.70;;;30.70;96.20;;;;;;5069022;28;20440;-64
2022/06/03 09:17:56;;;;;;;9.30;6.83;;;30.70;96.90;;;;;;5068820;28;20544;-64
2022/06/03 09:20:27;;;;;;;7.93;5.73;;;30.80;97.20;;;;;;5069388;28;20883;-64
2022/06/03 09:23:01;;;;;;;10.87;6.30;;;31.00;97.00;;;;;;5069109;28;20473;-67
2022/06/03 09:25:32;;;;;;;10.40;6.03;;;31.00;96.50;;;;;;5068805;28;20480;-66
2022/06/03 09:28:01;;;;;;;6.90;5.17;;;31.10;96.40;;;;;;5068892;28;20460;-66
2022/06/03 09:30:32;;;;;;;8.20;5.70;;;31.30;96.80;;;;;;5069700;28;20459;-65
2022/06/03 09:33:02;;;;;;;11.20;6.30;;;31.20;98.00;;;;;;5072740;28;20445;-66
2022/06/03 09:35:30;;;;;;;10.00;5.50;;;31.30;97.40;;;;;;5072827;28;20549;-64
2022/06/03 09:38:02;;;;;;;8.07;6.03;;;31.40;97.10;;;;;;5072714;28;20452;-66
2022/06/03 09:40:32;;;;;;;8.90;5.80;;;31.40;96.60;;;;;;5072511;28;20449;-64
2022/06/03 09:43:04;;;;;;;8.10;6.07;;;31.30;96.50;;;;;;5072479;28;20473;-65
2022/06/03 09:45:32;;;;;;;10.00;5.60;;;31.10;96.70;;;;;;5072452;28;20496;-64
2022/06/03 09:48:03;;;;;;;12.83;5.70;;;30.90;95.70;;;;;;5072467;28;20449;-63
2022/06/03 09:50:30;;;;;;;8.30;5.30;;;30.70;94.50;;;;;;5072280;28;20533;-66
2022/06/03 09:53:06;;;;;;;7.23;4.90;;;30.60;94.70;;;;;;5072178;28;20469;-63
2022/06/03 09:55:36;;;;;;;6.73;5.10;;;30.50;94.80;;;;;;5072337;28;20456;-67
2022/06/03 09:58:06;;;;;;;8.27;4.53;;;30.50;94.90;;;;;;5072628;28;20452;-67
2022/06/03 10:00:41;;;;;;;9.17;5.73;;;30.40;94.90;;;;;;5072313;28;20445;-65
2022/06/03 10:03:09;;;;;;;8.40;6.30;;;30.20;94.50;;;;;;5072180;28;20539;-63
2022/06/03 10:05:36;;;;;;;7.90;4.90;;;30.00;94.70;;;;;;5072173;28;20825;-66
2022/06/03 10:08:07;;;;;;;8.73;5.70;;;30.10;94.80;;;;;;5072204;28;20595;-62
2022/06/03 10:13:20;;;;;;;8.50;5.87;;;30.20;94.60;;;;;;5071931;28;20432;-66
2022/06/03 10:15:53;;;;;;;8.70;5.30;;;30.10;94.90;;;;;;5072008;28;20449;-67
2022/06/03 10:18:28;;;;;;;9.33;6.03;;;30.40;94.70;;;;;;5071901;28;20956;-65
2022/06/03 10:20:58;;;;;;;11.00;5.33;;;30.90;94.80;;;;;;5071886;28;20573;-66
2022/06/03 10:23:30;;;;;;;9.50;5.53;;;31.30;93.70;;;;;;5072019;28;20536;-65
2022/06/03 10:26:01;;;;;;;10.30;5.50;;;31.50;93.80;;;;;;5071734;28;20484;-65
2022/06/03 10:28:34;;;;;;;8.10;5.43;;;31.70;93.50;;;;;;5071908;28;20460;-67
2022/06/03 10:31:05;;;;;;;8.63;5.90;;;31.90;93.60;;;;;;5071823;28;20551;-65
2022/06/03 10:33:33;;;;;;;8.40;6.00;;;31.90;93.40;;;;;;5071770;28;20453;-66
2022/06/03 10:36:02;;;;;;;10.37;6.30;;;31.90;93.70;;;;;;5071859;28;20463;-65
2022/06/03 10:38:33;;;;;;;9.63;6.80;;;31.90;93.60;;;;;;5071200;28;20544;-65
2022/06/03 10:41:06;;;;;;;9.60;7.40;;;31.80;92.50;;;;;;5071110;28;20469;-65
2022/06/03 10:43:36;;;;;;;9.30;6.47;;;31.80;92.00;;;;;;5071075;28;20491;-64
2022/06/03 10:46:15;;;;;;;8.90;7.07;;;32.00;91.80;;;;;;5071419;28;20484;-69
2022/06/03 10:48:43;;;;;;;7.27;6.10;;;32.00;91.90;;;;;;5071514;28;20947;-66
2022/06/03 10:51:16;;;;;;;11.10;7.07;;;31.90;91.90;;;;;;5070998;28;20472;-65
2022/06/03 11:02:29;;;;;;;10.93;6.80;;;32.60;92.60;;;;;;5071216;28;20453;-63
2022/06/03 11:05:10;;;;;;;8.37;5.77;;;32.70;91.30;;;;;;5070871;28;20841;-66
2022/06/03 11:07:37;;;;;;;11.63;6.50;;;33.00;91.50;;;;;;5070910;28;20451;-65
2022/06/03 11:10:08;;;;;;;12.47;6.00;;;33.30;91.70;;;;;;5070769;28;20936;-63
2022/06/03 11:12:36;;;;;;;7.57;4.97;;;33.50;89.10;;;;;;5070703;28;20982;-66
2022/06/03 11:15:25;;;;;;;7.73;5.20;;;33.70;86.00;;;;;;5070733;28;21020;-67
2022/06/03 11:17:52;;;;;;;11.20;6.30;;;33.80;82.50;;;;;;5070775;28;20851;-66
2022/06/03 11:20:34;;;;;;;8.60;5.93;;;34.10;84.60;;;;;;5070375;28;20449;-67
2022/06/03 11:23:03;;;;;;;7.50;5.50;;;34.10;84.50;;;;;;5070476;28;20456;-66
2022/06/03 11:25:33;;;;;;;7.57;5.60;;;34.20;81.20;;;;;;5070620;28;20485;-64
2022/06/03 11:28:03;;;;;;;8.70;6.03;;;34.40;82.10;;;;;;5070739;28;20441;-66
2022/06/03 11:30:34;;;;;;;6.80;5.20;;;34.40;81.40;;;;;;5070664;28;20567;-65
2022/06/03 11:33:06;;;;;;;8.20;5.87;;;34.70;80.50;;;;;;5070464;28;20539;-64
2022/06/03 11:35:39;;;;;;;10.80;5.07;;;34.80;82.00;;;;;;5070323;28;20448;-65
2022/06/03 11:38:09;;;;;;;8.30;5.47;;;34.90;76.50;;;;;;5070336;28;20794;-66
2022/06/03 11:40:41;;;;;;;7.97;5.30;;;35.10;75.70;;;;;;5070363;28;20453;-64
2022/06/03 11:43:12;;;;;;;7.30;6.50;;;35.10;75.90;;;;;;5069915;28;20453;-65
2022/06/03 11:45:43;;;;;;;6.60;5.50;;;35.30;75.90;;;;;;5069954;28;20561;-65
2022/06/03 11:48:17;;;;;;;9.87;4.90;;;35.50;71.40;;;;;;5070357;28;20449;-66
2022/06/03 11:50:44;;;;;;;6.70;5.93;;;35.70;72.00;;;;;;5070099;28;20479;-66
2022/06/03 11:53:11;;;;;;;11.40;5.20;;;35.80;71.50;;;;;;5069713;28;20457;-64
2022/06/03 11:55:40;;;;;;;7.60;5.27;;;35.80;71.00;;;;;;5069788;28;20829;-65
2022/06/03 11:58:13;;;;;;;7.93;5.60;;;35.80;69.80;;;;;;5069990;28;20453;-65
2022/06/03 12:00:46;;;;;;;7.70;5.10;;;35.80;70.60;;;;;;5069915;28;20480;-66
2022/06/03 12:03:32;;;;;;;6.87;6.00;;;36.00;71.50;;;;;;5069944;28;20858;-65
2022/06/03 12:06:06;;;;;;;7.73;5.20;;;36.20;67.40;;;;;;5069689;28;20488;-65
2022/06/03 12:08:47;;;;;;;9.30;7.77;;;36.10;65.50;;;;;;5069839;28;20526;-64
2022/06/03 12:14:26;;;;;;;8.93;4.93;;;36.40;65.40;;;;;;5069414;28;20583;-65
2022/06/03 12:16:57;;;;;;;7.20;4.40;;;36.50;64.50;;;;;;5069304;28;20969;-65
2022/06/03 12:19:40;;;;;;;6.47;4.90;;;36.40;63.60;;;;;;5069838;28;20477;-70
2022/06/03 12:22:38;;;;;;;6.40;5.30;;;36.10;61.20;;;;;;5069132;28;20476;-70
2022/06/03 12:25:08;;;;;;;8.00;4.70;;;35.70;61.40;;;;;;5067998;28;20457;-68
2022/06/03 12:27:39;;;;;;;8.00;4.73;;;35.50;61.30;;;;;;5069835;28;20489;-65
2022/06/03 12:30:42;;;;;;;7.57;4.73;;;35.30;62.90;;;;;;5069675;28;20449;-68
2022/06/03 12:33:20;;;;;;;10.50;5.13;;;35.10;63.70;;;;;;5069522;28;20460;-64
2022/06/03 12:36:06;;;;;;;6.20;4.13;;;34.90;62.70;;;;;;5069699;28;20543;-66
2022/06/03 12:38:51;;;;;;;16.73;5.53;;;34.60;63.40;;;;;;5069630;28;20854;-64
2022/06/03 12:42:04;;;;;;;6.70;5.20;;;34.50;62.80;;;;;;5069027;28;20984;-67
2022/06/03 12:44:51;;;;;;;7.80;5.13;;;34.20;63.60;;;;;;5032741;28;20970;-67
2022/06/03 12:47:46;;;;;;;9.47;4.90;;;34.00;64.30;;;;;;5069461;28;20489;-66
2022/06/03 12:50:34;;;;;;;7.37;5.70;;;33.80;64.70;;;;;;5069549;28;20499;-66
2022/06/03 12:53:27;;;;;;;7.40;5.43;;;33.80;63.90;;;;;;5069554;28;20453;-68
2022/06/03 12:55:58;;;;;;;8.30;5.00;;;33.70;63.10;;;;;;5069189;28;21009;-68
2022/06/03 12:58:59;;;;;;;6.60;5.17;;;33.70;64.20;;;;;;5069260;28;20455;-69
2022/06/03 13:01:35;;;;;;;6.90;4.30;;;33.50;62.70;;;;;;5006645;28;20536;-67
2022/06/03 13:04:42;;;;;;;6.40;4.30;;;33.40;63.00;;;;;;5060223;28;20913;-66
2022/06/03 13:07:17;;;;;;;10.23;6.00;;;33.40;64.60;;;;;;5072658;28;20487;-69
2022/06/03 13:09:52;;;;;;;7.90;5.13;;;33.30;65.80;;;;;;5073262;28;20971;-67
2022/06/03 13:12:22;;;;;;;9.30;5.17;;;33.20;66.20;;;;;;5073184;28;20563;-68
2022/06/03 13:14:49;;;;;;;9.07;6.60;;;33.30;66.40;;;;;;5073218;28;20453;-66
2022/06/03 13:17:49;;;;;;;7.40;5.17;;;33.20;67.80;;;;;;5072941;28;20555;-64
2022/06/03 13:20:37;;;;;;;10.33;5.87;;;33.10;68.50;;;;;;5072917;28;20452;-66
2022/06/03 13:23:35;;;;;;;8.37;5.60;;;33.00;68.40;;;;;;5072881;28;20452;-70
2022/06/03 13:26:50;;;;;;;6.77;5.03;;;33.10;68.60;;;;;;5072700;28;20997;-70
2022/06/03 13:30:01;;;;;;;7.30;5.40;;;33.20;66.90;;;;;;5010207;28;20843;-69
2022/06/03 13:32:41;;;;;;;9.03;5.17;;;33.00;66.60;;;;;;4971132;28;20861;-66
2022/06/03 13:35:19;;;;;;;9.37;5.30;;;32.80;67.30;;;;;;5056381;28;20448;-64
2022/06/03 13:37:50;;;;;;;7.40;4.77;;;32.80;68.00;;;;;;5072746;28;20543;-68
2022/06/03 13:40:39;;;;;;;9.40;5.40;;;32.80;68.90;;;;;;5072856;28;20453;-69
2022/06/03 13:43:22;;;;;;;11.63;6.40;;;32.80;69.50;;;;;;5072354;28;20510;-70
2022/06/03 13:45:59;;;;;;;8.73;5.43;;;32.70;69.60;;;;;;5072196;28;20444;-66
2022/06/03 13:48:33;;;;;;;8.83;6.70;;;32.60;69.60;;;;;;5072366;28;20510;-67
2022/06/03 13:51:23;;;;;;;8.10;6.00;;;32.50;72.10;;;;;;5072268;28;20556;-65
2022/06/03 13:53:54;;;;;;;6.77;5.60;;;32.30;72.10;;;;;;5071936;28;20448;-68
2022/06/03 13:56:25;;;;;;;6.70;5.63;;;32.20;70.50;;;;;;5071979;28;20928;-68
2022/06/03 13:58:52;;;;;;;6.90;4.60;;;32.10;71.20;;;;;;5072382;28;20553;-68
2022/06/03 14:01:29;;;;;;;9.50;8.50;;;32.10;72.10;;;;;;5071982;28;20479;-66
2022/06/03 14:04:00;;;;;;;7.57;5.83;;;32.10;73.80;;;;;;5072262;28;20441;-65
2022/06/03 14:06:36;;;;;;;9.10;6.60;;;32.10;75.60;;;;;;5072247;28;20563;-68
2022/06/03 14:09:11;;;;;;;9.00;6.23;;;32.00;77.00;;;;;;5071914;28;20509;-63
2022/06/03 14:11:42;;;;;;;8.30;7.20;;;32.00;77.20;;;;;;5072019;28;20918;-65
2022/06/03 14:14:14;;;;;;;8.90;7.07;;;32.00;78.30;;;;;;5072106;28;20457;-63
2022/06/03 14:16:46;;;;;;;11.63;6.97;;;31.90;79.40;;;;;;5071095;28;20916;-66
2022/06/03 14:19:33;;;;;;;9.23;7.60;;;31.90;79.10;;;;;;5071675;28;20946;-65
2022/06/03 14:22:03;;;;;;;11.47;6.77;;;31.90;78.90;;;;;;5071673;28;20962;-67
2022/06/03 14:24:36;;;;;;;8.63;7.50;;;31.80;78.60;;;;;;5071813;28;20483;-68
2022/06/03 14:27:11;;;;;;;7.23;6.50;;;31.90;79.00;;;;;;5071753;28;21023;-68
2022/06/03 14:29:44;;;;;;;8.23;7.30;;;31.90;78.80;;;;;;5071459;28;20513;-68
2022/06/03 14:32:15;;;;;;;9.93;6.50;;;32.00;79.20;;;;;;5071431;28;20475;-67
2022/06/03 14:34:46;;;;;;;9.37;6.53;;;32.00;79.20;;;;;;5071311;28;20453;-68